createdAt,value
2022-09-06T00:00:08.304Z,90.60
2022-09-06T00:02:36.382Z,90.70
2022-09-06T00:05:04.749Z,90.60
2022-09-06T00:07:31.718Z,90.60
2022-09-06T00:09:58.601Z,90.70
2022-09-06T00:12:25.857Z,90.70
2022-09-06T00:14:52.771Z,90.70
2022-09-06T00:17:19.900Z,90.90
2022-09-06T00:19:46.849Z,90.90
2022-09-06T00:22:13.756Z,90.80
2022-09-06T00:24:40.656Z,90.70
2022-09-06T00:27:08.715Z,90.70
2022-09-06T00:29:36.017Z,90.80
2022-09-06T00:32:03.099Z,90.70
2022-09-06T00:34:30.101Z,90.80
2022-09-06T00:36:56.952Z,90.80
2022-09-06T00:39:23.919Z,90.80
2022-09-06T00:41:51.287Z,90.90
2022-09-06T00:44:18.196Z,90.90
2022-09-06T00:46:47.685Z,90.80
2022-09-06T00:49:24.512Z,90.90
2022-09-06T00:51:59.094Z,90.90
2022-09-06T00:54:26.434Z,90.90
2022-09-06T00:56:54.462Z,91.00
2022-09-06T00:59:22.086Z,91.10
2022-09-06T01:01:49.035Z,91.20
2022-09-06T01:04:16.326Z,91.20
2022-09-06T01:06:58.067Z,91.30
2022-09-06T01:09:37.206Z,91.40
2022-09-06T01:12:28.331Z,91.40
2022-09-06T01:15:33.114Z,91.60
2022-09-06T01:18:18.701Z,92.40
2022-09-06T01:20:57.270Z,92.80
2022-09-06T01:23:55.112Z,93.00
2022-09-06T01:26:24.705Z,93.00
2022-09-06T01:28:53.871Z,93.30
2022-09-06T01:31:27.819Z,93.50
2022-09-06T01:33:57.570Z,93.60
2022-09-06T01:36:32.593Z,93.50
2022-09-06T01:38:59.461Z,93.40
2022-09-06T01:41:26.646Z,94.00
2022-09-06T01:43:55.143Z,94.00
2022-09-06T01:46:27.870Z,94.30
2022-09-06T01:49:09.275Z,94.40
2022-09-06T01:52:08.918Z,94.50
2022-09-06T01:55:02.354Z,94.00
2022-09-06T01:57:37.372Z,93.70
2022-09-06T02:00:09.017Z,93.80
2022-09-06T02:02:51.618Z,94.40
2022-09-06T02:05:27.865Z,94.60
2022-09-06T02:08:00.230Z,94.90
2022-09-06T02:10:47.960Z,94.70
2022-09-06T02:13:16.902Z,94.80
2022-09-06T02:15:49.602Z,94.80
2022-09-06T02:18:24.842Z,94.50
2022-09-06T02:20:56.704Z,94.30
2022-09-06T02:23:27.628Z,94.20
2022-09-06T02:25:59.309Z,94.40
2022-09-06T02:28:26.747Z,94.50
2022-09-06T02:31:01.897Z,94.60
2022-09-06T02:33:32.109Z,94.60
2022-09-06T02:36:06.032Z,94.70
2022-09-06T02:38:36.106Z,94.60
2022-09-06T02:41:04.737Z,94.70
2022-09-06T02:43:31.661Z,94.60
2022-09-06T02:45:58.599Z,94.70
2022-09-06T02:48:25.533Z,94.40
2022-09-06T02:50:52.549Z,94.40
2022-09-06T02:53:19.465Z,94.50
2022-09-06T02:55:47.628Z,94.50
2022-09-06T02:58:15.664Z,94.60
2022-09-06T03:00:42.527Z,94.60
2022-09-06T03:03:09.429Z,94.40
2022-09-06T03:05:36.443Z,94.20
2022-09-06T03:08:03.521Z,94.00
2022-09-06T03:10:30.427Z,94.00
2022-09-06T03:12:57.347Z,94.00
2022-09-06T03:15:24.244Z,94.00
2022-09-06T03:17:51.165Z,94.10
2022-09-06T03:20:18.137Z,93.80
2022-09-06T03:22:44.985Z,93.70
2022-09-06T03:25:11.995Z,93.70
2022-09-06T03:27:38.947Z,93.70
2022-09-06T03:30:06.699Z,93.80
2022-09-06T03:32:33.822Z,93.80
2022-09-06T03:35:00.884Z,93.80
2022-09-06T03:37:28.215Z,93.80
2022-09-06T03:39:55.239Z,93.70
2022-09-06T03:42:22.265Z,93.60
2022-09-06T03:44:49.107Z,93.60
2022-09-06T03:47:19.435Z,93.70
2022-09-06T03:49:47.619Z,93.70
2022-09-06T03:52:15.291Z,93.70
2022-09-06T03:54:42.136Z,93.60
2022-09-06T03:57:09.580Z,93.70
2022-09-06T03:59:36.787Z,93.80
2022-09-06T04:02:04.278Z,93.70
2022-09-06T04:04:31.194Z,93.70
2022-09-06T04:06:58.118Z,93.60
2022-09-06T04:09:25.111Z,93.50
2022-09-06T04:11:52.068Z,93.40
2022-09-06T04:14:18.970Z,93.50
2022-09-06T04:16:46.014Z,93.50
2022-09-06T04:19:13.207Z,93.80
2022-09-06T04:21:40.158Z,93.60
2022-09-06T04:24:07.269Z,93.60
2022-09-06T04:26:34.527Z,93.60
2022-09-06T04:29:01.556Z,93.60
2022-09-06T04:31:28.421Z,93.50
2022-09-06T04:33:55.385Z,93.60
2022-09-06T04:36:22.252Z,93.40
2022-09-06T04:38:49.104Z,93.40
2022-09-06T04:41:18.695Z,93.40
2022-09-06T04:43:45.551Z,93.40
2022-09-06T04:46:23.010Z,93.40
2022-09-06T04:48:50.308Z,93.50
2022-09-06T04:51:17.717Z,93.50
2022-09-06T04:53:45.565Z,93.70
2022-09-06T04:56:16.101Z,93.70
2022-09-06T04:58:44.658Z,93.80
2022-09-06T05:01:11.619Z,93.90
2022-09-06T05:03:38.665Z,94.20
2022-09-06T05:06:11.144Z,94.40
2022-09-06T05:08:39.234Z,94.30
2022-09-06T05:11:07.673Z,94.40
2022-09-06T05:13:36.034Z,94.90
2022-09-06T05:16:05.229Z,94.70
2022-09-06T05:18:32.887Z,94.70
2022-09-06T05:21:00.203Z,94.90
2022-09-06T05:23:28.084Z,95.20
2022-09-06T05:25:55.124Z,95.80
2022-09-06T05:28:22.392Z,95.70
2022-09-06T05:30:49.283Z,95.40
2022-09-06T05:33:21.715Z,95.20
2022-09-06T05:35:49.366Z,95.30
2022-09-06T05:38:16.346Z,95.20
2022-09-06T05:40:43.472Z,95.20
2022-09-06T05:43:10.467Z,95.50
2022-09-06T05:45:37.535Z,95.30
2022-09-06T05:48:04.599Z,95.50
2022-09-06T05:50:31.639Z,95.30
2022-09-06T05:52:58.897Z,95.20
2022-09-06T05:55:26.156Z,95.20
2022-09-06T05:57:53.019Z,95.30
2022-09-06T06:00:20.160Z,95.30
2022-09-06T06:02:48.603Z,95.30
2022-09-06T06:05:16.464Z,95.50
2022-09-06T06:07:43.436Z,95.60
2022-09-06T06:10:10.544Z,95.70
2022-09-06T06:12:37.622Z,95.70
2022-09-06T06:15:05.808Z,97.60
2022-09-06T06:17:33.153Z,96.00
2022-09-06T06:20:00.180Z,97.20
2022-09-06T06:22:27.396Z,97.00
2022-09-06T06:24:54.318Z,97.00
2022-09-06T06:27:21.173Z,96.90
2022-09-06T06:29:48.060Z,98.80
2022-09-06T06:32:15.010Z,97.80
2022-09-06T06:34:41.814Z,97.70
2022-09-06T06:37:08.651Z,97.20
2022-09-06T06:39:35.710Z,97.20
2022-09-06T06:42:03.380Z,97.00
2022-09-06T06:44:30.307Z,96.80
2022-09-06T06:46:58.827Z,96.80
2022-09-06T06:49:25.712Z,97.40
2022-09-06T06:51:52.682Z,97.70
2022-09-06T06:54:19.963Z,97.80
2022-09-06T06:56:47.032Z,97.90
2022-09-06T06:59:14.485Z,98.00
2022-09-06T07:01:41.589Z,98.10
2022-09-06T07:04:10.455Z,98.00
2022-09-06T07:12:28.893Z,97.50
2022-09-06T07:14:55.781Z,97.60
2022-09-06T07:17:22.772Z,97.80
2022-09-06T07:22:37.221Z,98.80
2022-09-06T07:25:05.691Z,98.80
2022-09-06T07:27:48.916Z,98.40
2022-09-06T07:30:16.832Z,98.30
2022-09-06T07:32:43.695Z,98.00
2022-09-06T07:35:12.450Z,98.10
2022-09-06T07:37:39.365Z,98.10
2022-09-06T07:40:06.846Z,98.10
2022-09-06T07:42:36.333Z,98.00
2022-09-06T07:45:04.893Z,98.40
2022-09-06T07:53:12.679Z,98.30
2022-09-06T07:55:42.654Z,98.70
2022-09-06T07:58:09.520Z,98.60
2022-09-06T08:00:38.402Z,99.10
2022-09-06T08:03:05.421Z,99.30
2022-09-06T08:11:09.075Z,99.90
2022-09-06T08:13:37.228Z,99.50
2022-09-06T08:16:09.606Z,99.20
2022-09-06T08:18:37.461Z,99.50
2022-09-06T08:21:13.061Z,99.90
2022-09-06T08:23:51.822Z,99.50
2022-09-06T08:26:20.894Z,99.90
2022-09-06T08:28:47.757Z,99.90
2022-09-06T08:31:17.193Z,99.90
2022-09-06T08:33:44.634Z,99.90
2022-09-06T08:36:12.053Z,99.90
2022-09-06T08:38:39.177Z,99.50
2022-09-06T08:41:21.357Z,99.90
2022-09-06T08:47:06.797Z,99.80
2022-09-06T08:49:56.837Z,99.60
2022-09-06T08:52:54.379Z,99.90
2022-09-06T08:55:31.188Z,99.90
2022-09-06T08:58:19.094Z,99.90
2022-09-06T09:00:58.648Z,99.90
2022-09-06T09:03:37.131Z,99.90
2022-09-06T09:06:06.404Z,99.90
2022-09-06T09:08:43.054Z,99.90
2022-09-06T09:11:15.709Z,99.90
2022-09-06T09:14:20.187Z,99.90
2022-09-06T09:16:52.493Z,99.90
2022-09-06T09:19:19.423Z,99.90
2022-09-06T09:21:46.514Z,99.90
2022-09-06T09:24:15.820Z,99.30
2022-09-06T09:26:57.637Z,99.60
2022-09-06T09:29:28.644Z,99.90
2022-09-06T09:31:57.592Z,98.90
2022-09-06T09:34:39.807Z,98.50
2022-09-06T09:40:06.984Z,99.00
2022-09-06T09:42:37.759Z,98.40
2022-09-06T09:45:27.861Z,98.70
2022-09-06T09:47:55.361Z,98.60
2022-09-06T09:50:34.270Z,98.30
2022-09-06T09:53:12.212Z,99.20
2022-09-06T09:55:39.810Z,97.30
2022-09-06T09:58:08.603Z,97.60
2022-09-06T10:00:41.523Z,97.80
2022-09-06T10:03:20.303Z,98.20
2022-09-06T10:06:03.336Z,99.00
2022-09-06T10:08:33.924Z,96.90
2022-09-06T10:11:01.215Z,96.30
2022-09-06T10:13:30.252Z,96.40
2022-09-06T10:15:58.892Z,95.60
2022-09-06T10:18:43.852Z,95.60
2022-09-06T10:21:22.349Z,96.00
2022-09-06T10:26:49.814Z,95.00
2022-09-06T10:29:42.765Z,94.70
2022-09-06T10:32:31.308Z,94.50
2022-09-06T10:35:23.954Z,94.40
2022-09-06T10:38:13.430Z,95.40
2022-09-06T10:40:46.156Z,95.00
2022-09-06T10:43:22.979Z,93.70
2022-09-06T10:46:05.191Z,93.60
2022-09-06T10:48:45.032Z,92.40
2022-09-06T10:51:40.662Z,91.50
2022-09-06T10:54:13.777Z,91.00
2022-09-06T10:56:45.474Z,90.90
2022-09-06T10:59:39.424Z,91.00
2022-09-06T11:02:12.403Z,90.60
2022-09-06T11:07:31.253Z,88.90
2022-09-06T11:10:07.834Z,88.20
2022-09-06T11:12:40.540Z,87.30
2022-09-06T11:15:10.599Z,86.20
2022-09-06T11:17:46.088Z,86.60
2022-09-06T11:20:32.109Z,87.70
2022-09-06T11:23:14.245Z,86.90
2022-09-06T11:25:59.917Z,84.30
2022-09-06T11:28:36.872Z,83.60
2022-09-06T11:31:07.529Z,82.90
2022-09-06T11:33:40.042Z,82.30
2022-09-06T11:36:45.179Z,82.20
2022-09-06T11:39:12.902Z,82.00
2022-09-06T11:41:42.371Z,80.20
2022-09-06T11:44:10.561Z,81.20
2022-09-06T11:46:57.956Z,80.30
2022-09-06T11:49:37.478Z,79.90
2022-09-06T11:52:43.098Z,79.00
2022-09-06T11:55:12.602Z,79.50
2022-09-06T11:57:41.233Z,77.90
2022-09-06T12:00:17.344Z,79.20
2022-09-06T12:02:45.054Z,77.90
2022-09-06T12:05:16.079Z,80.10
2022-09-06T12:08:11.085Z,78.60
2022-09-06T12:10:41.987Z,79.40
2022-09-06T12:13:38.714Z,77.70
2022-09-06T12:16:06.422Z,77.50
2022-09-06T12:18:48.730Z,77.10
2022-09-06T12:21:34.547Z,77.60
2022-09-06T12:24:02.015Z,77.20
2022-09-06T12:27:05.186Z,74.10
2022-09-06T12:29:32.136Z,77.00
2022-09-06T12:32:01.649Z,77.10
2022-09-06T12:34:34.555Z,76.20
2022-09-06T12:37:05.709Z,76.50
2022-09-06T12:39:33.257Z,75.20
2022-09-06T12:42:05.866Z,76.50
2022-09-06T12:44:34.520Z,74.90
2022-09-06T12:47:28.006Z,75.30
2022-09-06T12:50:17.943Z,73.00
2022-09-06T12:52:46.636Z,72.80
2022-09-06T12:55:21.299Z,72.50
2022-09-06T12:58:00.405Z,72.40
2022-09-06T13:00:42.867Z,72.10
2022-09-06T13:03:33.132Z,68.30
2022-09-06T13:06:05.294Z,71.50
2022-09-06T13:08:38.791Z,71.70
2022-09-06T13:11:10.966Z,71.20
2022-09-06T13:13:48.360Z,71.70
2022-09-06T13:16:25.517Z,70.00
2022-09-06T13:18:53.676Z,70.20
2022-09-06T13:21:31.222Z,70.20
2022-09-06T13:23:59.205Z,70.90
2022-09-06T13:26:37.951Z,71.40
2022-09-06T13:29:32.141Z,68.00
2022-09-06T13:32:01.836Z,70.30
2022-09-06T13:34:31.544Z,71.50
2022-09-06T13:37:05.281Z,71.60
2022-09-06T13:39:41.078Z,71.80
2022-09-06T13:42:11.754Z,72.40
2022-09-06T13:44:39.676Z,72.20
2022-09-06T13:47:06.560Z,70.80
2022-09-06T13:49:34.058Z,71.00
2022-09-06T13:52:03.786Z,71.40
2022-09-06T13:54:31.976Z,72.40
2022-09-06T13:56:58.776Z,73.20
2022-09-06T13:59:25.751Z,74.40
2022-09-06T14:02:03.867Z,75.00
2022-09-06T14:04:31.883Z,73.20
2022-09-06T14:06:59.019Z,75.10
2022-09-06T14:09:26.017Z,74.10
2022-09-06T14:11:53.214Z,73.70
2022-09-06T14:14:21.102Z,73.60
2022-09-06T14:16:48.184Z,73.20
2022-09-06T14:19:15.635Z,74.10
2022-09-06T14:21:43.351Z,73.50
2022-09-06T14:24:10.460Z,71.30
2022-09-06T14:26:38.771Z,71.60
2022-09-06T14:29:05.697Z,73.80
2022-09-06T14:31:33.569Z,76.10
2022-09-06T14:34:02.173Z,76.60
2022-09-06T14:36:31.589Z,73.30
2022-09-06T14:38:59.704Z,73.70
2022-09-06T14:41:26.887Z,75.00
2022-09-06T14:43:57.075Z,76.40
2022-09-06T14:46:25.649Z,76.20
2022-09-06T14:49:01.649Z,76.00
2022-09-06T14:51:29.604Z,76.30
2022-09-06T14:54:02.327Z,74.70
2022-09-06T14:56:30.356Z,73.70
2022-09-06T14:58:57.886Z,72.80
2022-09-06T15:01:34.169Z,73.80
2022-09-06T15:04:05.434Z,75.40
2022-09-06T15:06:34.897Z,76.00
2022-09-06T15:09:01.952Z,76.90
2022-09-06T15:11:34.565Z,77.60
2022-09-06T15:14:08.003Z,78.70
2022-09-06T15:16:36.059Z,78.20
2022-09-06T15:19:03.166Z,78.10
2022-09-06T15:21:31.132Z,77.50
2022-09-06T15:23:58.891Z,77.30
2022-09-06T15:26:25.797Z,77.90
2022-09-06T15:28:52.725Z,78.00
2022-09-06T15:31:20.191Z,78.80
2022-09-06T15:33:50.276Z,78.70
2022-09-06T15:36:17.528Z,78.30
2022-09-06T15:38:52.627Z,79.10
2022-09-06T15:41:24.868Z,78.50
2022-09-06T15:43:55.030Z,78.00
2022-09-06T15:46:46.999Z,78.10
2022-09-06T15:49:23.315Z,78.40
2022-09-06T15:51:52.881Z,76.90
2022-09-06T15:54:41.231Z,75.70
2022-09-06T15:57:08.500Z,74.90
2022-09-06T15:59:35.427Z,74.00
2022-09-06T16:02:02.402Z,74.00
2022-09-06T16:04:29.328Z,73.10
2022-09-06T16:06:56.860Z,72.30
2022-09-06T16:09:24.281Z,72.30
2022-09-06T16:11:51.222Z,72.60
2022-09-06T16:14:18.369Z,72.30
2022-09-06T16:16:45.703Z,72.10
2022-09-06T16:19:13.503Z,71.90
2022-09-06T16:21:42.205Z,71.60
2022-09-06T16:24:12.313Z,71.60
2022-09-06T16:26:42.070Z,71.80
2022-09-06T16:29:10.915Z,71.10
2022-09-06T16:31:40.568Z,70.80
2022-09-06T16:34:09.112Z,71.00
2022-09-06T16:36:36.401Z,71.20
2022-09-06T16:39:03.880Z,70.10
2022-09-06T16:41:40.796Z,70.50
2022-09-06T16:44:09.595Z,71.10
2022-09-06T16:46:36.620Z,71.50
2022-09-06T16:49:04.573Z,71.50
2022-09-06T16:51:32.069Z,72.20
2022-09-06T16:54:00.461Z,72.50
2022-09-06T16:56:31.826Z,72.10
2022-09-06T16:59:01.139Z,72.40
2022-09-06T17:01:31.314Z,73.30
2022-09-06T17:04:01.000Z,73.80
2022-09-06T17:06:29.127Z,74.80
2022-09-06T17:08:59.398Z,75.10
2022-09-06T17:11:28.292Z,75.30
2022-09-06T17:13:56.676Z,76.50
2022-09-06T17:16:43.230Z,77.60
2022-09-06T17:19:10.943Z,78.50
2022-09-06T17:21:40.017Z,79.00
2022-09-06T17:24:11.329Z,79.70
2022-09-06T17:26:39.346Z,80.00
2022-09-06T17:29:07.157Z,80.50
2022-09-06T17:31:34.561Z,80.90
2022-09-06T17:34:01.899Z,81.30
2022-09-06T17:36:31.749Z,81.80
2022-09-06T17:39:07.381Z,82.20
2022-09-06T17:41:41.672Z,82.50
2022-09-06T17:44:11.141Z,82.70
2022-09-06T17:46:47.720Z,83.10
2022-09-06T17:49:19.671Z,83.30
2022-09-06T17:51:47.346Z,83.90
2022-09-06T17:54:14.804Z,83.80
2022-09-06T17:56:41.775Z,84.40
2022-09-06T17:59:11.411Z,84.60
2022-09-06T18:01:38.747Z,84.80
2022-09-06T18:04:07.861Z,85.20
2022-09-06T18:06:38.450Z,86.00
2022-09-06T18:09:09.929Z,86.20
2022-09-06T18:11:39.741Z,86.50
2022-09-06T18:14:09.939Z,87.10
2022-09-06T18:16:40.232Z,87.80
2022-09-06T18:19:08.464Z,88.30
2022-09-06T18:21:38.913Z,88.50
2022-09-06T18:24:06.711Z,88.70
2022-09-06T18:26:33.631Z,88.90
2022-09-06T18:29:00.804Z,89.10
2022-09-06T18:31:28.520Z,89.40
2022-09-06T18:34:00.071Z,90.00
2022-09-06T18:36:32.013Z,90.10
2022-09-06T18:39:03.080Z,90.20
2022-09-06T18:41:48.884Z,90.30
2022-09-06T18:44:16.838Z,90.40
2022-09-06T18:46:43.972Z,90.70
2022-09-06T18:49:13.574Z,91.00
2022-09-06T18:51:41.076Z,91.10
2022-09-06T18:54:08.165Z,91.30
2022-09-06T18:56:35.025Z,91.50
2022-09-06T18:59:02.226Z,91.70
2022-09-06T19:01:30.728Z,91.60
2022-09-06T19:03:58.657Z,91.70
2022-09-06T19:06:27.401Z,91.70
2022-09-06T19:08:55.144Z,91.60
2022-09-06T19:11:22.310Z,91.50
2022-09-06T19:13:53.747Z,91.50
2022-09-06T19:16:22.380Z,91.50
2022-09-06T19:18:50.959Z,91.50
2022-09-06T19:21:19.796Z,91.40
2022-09-06T19:23:47.885Z,91.40
2022-09-06T19:26:19.779Z,91.60
2022-09-06T19:28:55.835Z,91.70
2022-09-06T19:31:24.486Z,91.80
2022-09-06T19:33:52.096Z,91.90
2022-09-06T19:36:20.687Z,92.30
2022-09-06T19:39:04.038Z,92.30
2022-09-06T19:41:37.867Z,92.40
2022-09-06T19:44:07.756Z,92.30
2022-09-06T19:46:35.117Z,92.30
2022-09-06T19:49:02.334Z,92.40
2022-09-06T19:51:29.582Z,92.40
2022-09-06T19:54:00.460Z,92.20
2022-09-06T19:56:32.650Z,92.20
2022-09-06T19:59:01.920Z,92.10
2022-09-06T20:01:53.761Z,92.40
2022-09-06T20:04:21.174Z,92.40
2022-09-06T20:06:48.840Z,92.40
2022-09-06T20:09:16.055Z,92.40
2022-09-06T20:11:46.504Z,92.60
2022-09-06T20:17:34.362Z,93.00
2022-09-06T20:20:01.998Z,93.10
2022-09-06T20:22:28.907Z,93.20
2022-09-06T20:24:55.827Z,93.20
2022-09-06T20:27:22.731Z,93.40
2022-09-06T20:29:49.650Z,93.40
2022-09-06T20:32:16.551Z,93.50
2022-09-06T20:34:43.549Z,93.40
2022-09-06T20:37:10.898Z,93.60
2022-09-06T20:39:37.882Z,93.60
2022-09-06T20:42:04.940Z,93.50
2022-09-06T20:44:31.776Z,93.50
2022-09-06T20:46:58.887Z,93.60
2022-09-06T20:49:25.904Z,94.00
2022-09-06T20:51:52.770Z,94.40
2022-09-06T20:54:19.653Z,94.40
2022-09-06T20:56:46.485Z,94.50
2022-09-06T20:59:14.175Z,94.60
2022-09-06T21:01:43.821Z,94.60
2022-09-06T21:04:12.546Z,94.60
2022-09-06T21:06:40.372Z,94.60
2022-09-06T21:09:09.870Z,94.60
2022-09-06T21:11:37.117Z,94.60
2022-09-06T21:14:05.110Z,94.50
2022-09-06T21:16:32.497Z,94.50
2022-09-06T21:19:02.103Z,94.30
2022-09-06T21:21:30.740Z,94.20
2022-09-06T21:23:58.138Z,94.10
2022-09-06T21:26:24.986Z,94.20
2022-09-06T21:28:52.701Z,94.20
2022-09-06T21:31:27.495Z,94.10
2022-09-06T21:33:56.959Z,94.10
2022-09-06T21:36:33.954Z,94.30
2022-09-06T21:39:03.678Z,94.70
2022-09-06T21:41:31.764Z,94.90
2022-09-06T21:44:01.146Z,95.20
2022-09-06T21:46:33.079Z,95.50
2022-09-06T21:49:12.074Z,95.10
2022-09-06T21:51:39.448Z,95.30
2022-09-06T21:54:06.833Z,95.30
2022-09-06T21:56:36.011Z,95.30
2022-09-06T21:59:03.606Z,95.50
2022-09-06T22:01:33.075Z,95.10
2022-09-06T22:04:00.472Z,94.90
2022-09-06T22:06:29.841Z,95.00
2022-09-06T22:08:58.148Z,94.70
2022-09-06T22:11:27.918Z,94.60
2022-09-06T22:13:58.779Z,94.70
2022-09-06T22:16:26.824Z,94.60
2022-09-06T22:18:53.828Z,94.50
2022-09-06T22:21:21.856Z,94.30
2022-09-06T22:23:54.452Z,94.30
2022-09-06T22:26:22.244Z,94.30
2022-09-06T22:28:54.217Z,94.30
2022-09-06T22:31:22.003Z,94.40
2022-09-06T22:33:49.075Z,94.50
2022-09-06T22:36:15.970Z,95.70
2022-09-06T22:38:42.944Z,97.20
2022-09-06T22:41:09.924Z,99.10
2022-09-06T22:43:36.864Z,99.90
2022-09-06T22:46:09.328Z,99.90
2022-09-06T22:48:36.901Z,99.90
2022-09-06T22:51:06.080Z,99.90
2022-09-06T22:53:33.290Z,99.90
2022-09-06T22:56:01.426Z,99.90
2022-09-06T22:58:28.371Z,99.90
2022-09-06T23:00:55.782Z,99.50
2022-09-06T23:03:22.975Z,98.60
2022-09-06T23:05:49.976Z,98.30
2022-09-06T23:08:17.015Z,98.20
2022-09-06T23:10:44.502Z,98.50
2022-09-06T23:13:11.552Z,98.50
2022-09-06T23:15:40.880Z,98.20
2022-09-06T23:18:08.531Z,98.50
2022-09-06T23:20:37.185Z,98.20
2022-09-06T23:23:05.203Z,98.20
2022-09-06T23:25:32.182Z,98.00
2022-09-06T23:28:00.164Z,98.30
2022-09-06T23:30:27.026Z,98.00
2022-09-06T23:32:56.314Z,98.20
2022-09-06T23:35:24.134Z,98.50
2022-09-06T23:37:51.449Z,98.60
2022-09-06T23:40:19.601Z,99.30
2022-09-06T23:42:47.284Z,99.80
2022-09-06T23:45:14.270Z,99.90
2022-09-06T23:47:41.619Z,99.90
2022-09-06T23:50:09.075Z,99.90
2022-09-06T23:52:36.003Z,99.90
2022-09-06T23:55:03.344Z,99.80
2022-09-06T23:57:30.444Z,99.70
2022-09-06T23:59:57.282Z,99.70
